Time;durP1;ratioP1;P1;durP2;ratioP2;P2;SDS_P1;SDS_P2;PMS_P1;PMS_P2;Temp;Humidity;BMP_temperature;BMP_pressure;BME280_temperature;BME280_humidity;BME280_pressure;Samples;Min_cycle;Max_cycle;Signal;HPM_P1;HPM_P2
2023/08/18 00:02:16;;;;;;;1999.90;999.90;;;16.30;99.90;;;;;;5085724;28;20051;-70
2023/08/18 00:04:42;;;;;;;1999.90;999.90;;;16.30;99.90;;;;;;5068078;28;20048;-71
2023/08/18 00:07:08;;;;;;;1999.90;999.90;;;16.30;99.90;;;;;;5083139;28;20032;-71
2023/08/18 00:09:34;;;;;;;1999.90;999.90;;;16.30;99.90;;;;;;5082732;28;20041;-71
2023/08/18 00:11:59;;;;;;;1999.90;999.90;;;16.30;99.90;;;;;;5097421;28;20144;-71
2023/08/18 00:14:25;;;;;;;1999.90;999.90;;;16.30;99.90;;;;;;5062688;28;20086;-71
2023/08/18 00:16:50;;;;;;;1999.90;999.90;;;16.30;99.90;;;;;;5084825;28;20067;-71
2023/08/18 00:19:16;;;;;;;1999.90;999.90;;;16.40;99.90;;;;;;5082293;28;20494;-70
2023/08/18 00:21:41;;;;;;;1999.90;999.90;;;16.40;99.90;;;;;;5085694;28;20040;-71
2023/08/18 00:24:07;;;;;;;1999.90;999.90;;;16.40;99.90;;;;;;5097097;28;20121;-71
2023/08/18 00:26:33;;;;;;;1999.90;999.90;;;16.40;99.90;;;;;;5066289;28;20032;-71
2023/08/18 00:28:58;;;;;;;1999.90;999.90;;;16.40;99.90;;;;;;5100255;28;20489;-71
2023/08/18 00:31:24;;;;;;;1999.90;999.90;;;16.40;99.90;;;;;;5084661;28;20039;-71
2023/08/18 00:33:50;;;;;;;1999.90;999.90;;;16.40;99.90;;;;;;5084688;28;20136;-71
2023/08/18 00:36:16;;;;;;;1999.90;999.90;;;16.50;99.90;;;;;;5086347;28;20044;-71
2023/08/18 00:38:41;;;;;;;1999.90;999.90;;;16.50;99.90;;;;;;5069416;28;20146;-71
2023/08/18 00:41:07;;;;;;;1999.90;999.90;;;16.50;99.90;;;;;;5088001;28;20043;-71
2023/08/18 00:43:33;;;;;;;1999.90;999.90;;;16.50;99.90;;;;;;5075542;28;20059;-71
2023/08/18 00:45:58;;;;;;;1999.90;999.90;;;16.50;99.90;;;;;;5085401;28;20048;-71
2023/08/18 00:48:24;;;;;;;1999.90;999.90;;;16.50;99.90;;;;;;5086763;28;20072;-71
2023/08/18 00:50:51;;;;;;;1999.90;999.90;;;16.50;99.90;;;;;;5064617;28;20033;-71
2023/08/18 00:53:18;;;;;;;1999.90;999.90;;;16.50;99.90;;;;;;5083931;28;20385;-71
2023/08/18 00:55:45;;;;;;;1999.90;999.90;;;16.50;99.90;;;;;;5085726;28;20048;-71
2023/08/18 00:58:11;;;;;;;1999.90;999.90;;;16.50;99.90;;;;;;5079381;28;20393;-70
2023/08/18 01:00:38;;;;;;;1999.90;999.90;;;16.40;99.90;;;;;;5076849;28;20028;-70
2023/08/18 01:03:04;;;;;;;1999.90;999.90;;;16.40;99.90;;;;;;5086274;28;20032;-71
2023/08/18 01:05:31;;;;;;;1999.90;999.90;;;16.50;99.90;;;;;;5066454;28;20167;-71
2023/08/18 01:07:57;;;;;;;1999.90;999.90;;;16.50;99.90;;;;;;5086029;28;20047;-71
2023/08/18 01:10:24;;;;;;;1999.90;999.90;;;16.50;99.90;;;;;;5084786;28;20054;-71
2023/08/18 01:13:13;;;;;;;1999.90;999.90;;;16.50;99.90;;;;;;5075121;28;20447;-70
2023/08/18 01:15:42;;;;;;;1999.90;999.90;;;16.50;99.90;;;;;;5081339;28;20083;-71
2023/08/18 01:18:10;;;;;;;1999.90;999.90;;;16.50;99.90;;;;;;5086210;28;20078;-71
2023/08/18 01:20:37;;;;;;;1999.90;999.90;;;16.50;99.90;;;;;;5085147;28;20492;-70
2023/08/18 01:23:03;;;;;;;1999.90;999.90;;;16.50;99.90;;;;;;5088089;28;20121;-71
2023/08/18 01:25:30;;;;;;;1999.90;999.90;;;16.50;99.90;;;;;;5082532;28;20050;-70
2023/08/18 01:27:58;;;;;;;1999.90;999.90;;;16.50;99.90;;;;;;5087343;28;20047;-71
2023/08/18 01:30:47;;;;;;;1999.90;999.90;;;16.40;99.90;;;;;;5088206;28;20553;-70
2023/08/18 01:33:20;;;;;;;1999.90;999.90;;;16.50;99.90;;;;;;5090971;28;20140;-70
2023/08/18 01:35:47;;;;;;;1999.90;999.90;;;16.50;99.90;;;;;;5080162;28;20152;-71
2023/08/18 01:38:15;;;;;;;1999.90;999.90;;;16.50;99.90;;;;;;5092196;28;20047;-70
2023/08/18 01:40:42;;;;;;;1999.90;999.90;;;16.40;99.90;;;;;;5088584;28;20504;-71
2023/08/18 01:43:08;;;;;;;1999.90;999.90;;;16.50;99.90;;;;;;5072839;28;20162;-71
2023/08/18 01:45:35;;;;;;;1999.90;999.90;;;16.40;99.90;;;;;;5072213;28;20119;-70
2023/08/18 01:48:01;;;;;;;1999.90;999.90;;;16.40;99.90;;;;;;5089819;28;20070;-70
2023/08/18 01:50:27;;;;;;;1999.90;999.90;;;16.40;99.90;;;;;;5089351;28;20073;-71
2023/08/18 01:52:52;;;;;;;1999.90;999.90;;;16.30;99.90;;;;;;5080248;28;20116;-70
2023/08/18 01:55:18;;;;;;;1999.90;999.90;;;16.30;99.90;;;;;;5089783;28;20055;-71
2023/08/18 01:57:43;;;;;;;1999.90;999.90;;;16.30;99.90;;;;;;5087826;28;20063;-70
2023/08/18 02:00:09;;;;;;;1999.90;999.90;;;16.30;99.90;;;;;;5107065;28;20040;-70
2023/08/18 02:02:35;;;;;;;1999.90;999.90;;;16.20;99.90;;;;;;5083785;28;20039;-70
2023/08/18 02:05:01;;;;;;;1999.90;999.90;;;16.10;99.90;;;;;;5089841;28;20063;-70
2023/08/18 02:07:27;;;;;;;1999.90;999.90;;;16.10;99.90;;;;;;5080048;28;20044;-71
2023/08/18 02:09:52;;;;;;;1999.90;999.90;;;16.10;99.90;;;;;;5089929;28;20508;-71
2023/08/18 02:12:18;;;;;;;1999.90;999.90;;;16.00;99.90;;;;;;5061560;28;20123;-70
2023/08/18 02:14:44;;;;;;;1999.90;999.90;;;16.00;99.90;;;;;;5078507;28;20044;-70
2023/08/18 02:17:09;;;;;;;1999.90;999.90;;;16.00;99.90;;;;;;5087989;28;20036;-71
2023/08/18 02:19:35;;;;;;;1999.90;999.90;;;15.90;99.90;;;;;;5087897;28;20063;-71
2023/08/18 02:22:00;;;;;;;1999.90;999.90;;;15.90;99.90;;;;;;5098201;28;20084;-70
2023/08/18 02:24:26;;;;;;;1999.90;999.90;;;15.90;99.90;;;;;;5070817;28;20075;-71
2023/08/18 02:26:52;;;;;;;1999.90;999.90;;;15.90;99.90;;;;;;5061632;28;20378;-71
2023/08/18 02:29:17;;;;;;;1999.90;999.90;;;15.90;99.90;;;;;;5083092;28;20048;-71
2023/08/18 02:31:43;;;;;;;1999.90;999.90;;;15.90;99.90;;;;;;5071978;28;20051;-70
2023/08/18 02:34:09;;;;;;;1999.90;999.90;;;15.90;99.90;;;;;;5088413;28;20392;-70
2023/08/18 02:36:35;;;;;;;1999.90;999.90;;;15.90;99.90;;;;;;5087233;28;20084;-70
2023/08/18 02:39:02;;;;;;;1999.90;999.90;;;15.90;99.90;;;;;;5082434;28;20098;-70
2023/08/18 02:41:27;;;;;;;1999.90;999.90;;;15.90;99.90;;;;;;5082069;28;20052;-70
2023/08/18 02:43:53;;;;;;;1999.90;999.90;;;15.90;99.90;;;;;;5087809;28;20400;-70
2023/08/18 02:46:19;;;;;;;1999.90;999.90;;;15.90;99.90;;;;;;5072160;28;20110;-70
2023/08/18 02:48:44;;;;;;;1999.90;999.90;;;15.90;99.90;;;;;;5086428;28;20044;-70
2023/08/18 02:51:10;;;;;;;1999.90;999.90;;;15.90;99.90;;;;;;5061313;28;20044;-70
2023/08/18 02:53:39;;;;;;;1999.90;999.90;;;15.90;99.90;;;;;;5087412;28;20127;-70
2023/08/18 02:56:05;;;;;;;1999.90;999.90;;;16.00;99.90;;;;;;5086098;28;20036;-71
2023/08/18 02:58:33;;;;;;;1999.90;999.90;;;16.00;99.90;;;;;;5087593;28;20040;-70
2023/08/18 03:01:05;;;;;;;1999.90;999.90;;;16.00;99.90;;;;;;5086021;28;20048;-71
2023/08/18 03:03:30;;;;;;;1999.90;999.90;;;16.00;99.90;;;;;;5085227;28;20492;-70
2023/08/18 03:06:04;;;;;;;1999.90;999.90;;;16.00;99.90;;;;;;5099530;28;20055;-70
2023/08/18 03:08:30;;;;;;;1999.90;999.90;;;16.00;99.90;;;;;;5086916;28;20068;-70
2023/08/18 03:10:57;;;;;;;1999.90;999.90;;;16.10;99.90;;;;;;5084150;28;20047;-71
2023/08/18 03:13:24;;;;;;;1999.90;999.90;;;16.10;99.90;;;;;;5070943;28;20043;-71
2023/08/18 03:15:49;;;;;;;1999.90;999.90;;;16.10;99.90;;;;;;5079811;28;20047;-70
2023/08/18 03:18:15;;;;;;;1999.90;999.90;;;16.10;99.90;;;;;;5096594;28;20044;-71
2023/08/18 03:20:41;;;;;;;1999.90;999.90;;;16.10;99.90;;;;;;5065365;28;20135;-71
2023/08/18 03:23:07;;;;;;;1999.90;999.90;;;16.10;99.90;;;;;;5086568;28;20525;-71
2023/08/18 03:25:33;;;;;;;1999.90;999.90;;;16.10;99.90;;;;;;5066675;28;20218;-70
2023/08/18 03:27:58;;;;;;;1999.90;999.90;;;16.10;99.90;;;;;;5104506;28;20131;-71
2023/08/18 03:30:24;;;;;;;1999.90;999.90;;;16.20;99.90;;;;;;5102788;28;20052;-71
2023/08/18 03:32:52;;;;;;;1999.90;999.90;;;16.20;99.90;;;;;;5088689;28;20043;-71
2023/08/18 03:35:17;;;;;;;1999.90;999.90;;;16.20;99.90;;;;;;5079179;28;20048;-71
2023/08/18 03:37:43;;;;;;;1999.90;999.90;;;16.20;99.90;;;;;;5065692;28;20109;-71
2023/08/18 03:40:09;;;;;;;1999.90;999.90;;;16.20;99.90;;;;;;5083183;28;20135;-71
2023/08/18 03:42:35;;;;;;;1999.90;999.90;;;16.20;99.90;;;;;;5104544;28;20159;-71
2023/08/18 03:45:00;;;;;;;1999.90;999.90;;;16.30;99.90;;;;;;5077783;28;20123;-71
2023/08/18 03:47:26;;;;;;;1999.90;999.90;;;16.30;99.90;;;;;;5100361;28;20061;-70
2023/08/18 03:49:51;;;;;;;1999.90;999.90;;;16.30;99.90;;;;;;5082804;28;20119;-70
2023/08/18 03:52:17;;;;;;;1999.90;999.90;;;16.30;99.90;;;;;;5063726;28;20557;-71
2023/08/18 03:54:43;;;;;;;1999.90;999.90;;;16.30;99.90;;;;;;5087214;28;20044;-71
2023/08/18 03:57:08;;;;;;;1999.90;999.90;;;16.30;99.90;;;;;;5085145;28;20580;-71
2023/08/18 03:59:34;;;;;;;1999.90;999.90;;;16.30;99.90;;;;;;5084212;28;20070;-71
2023/08/18 04:01:59;;;;;;;1999.90;999.90;;;16.40;99.90;;;;;;5102947;28;20043;-71
2023/08/18 04:04:25;;;;;;;1999.90;999.90;;;16.40;99.90;;;;;;5084894;28;20063;-71
2023/08/18 04:06:51;;;;;;;1999.90;999.90;;;16.40;99.90;;;;;;5075040;28;20055;-71
2023/08/18 04:09:16;;;;;;;1999.90;999.90;;;16.40;99.90;;;;;;5088656;28;20683;-71
2023/08/18 04:11:43;;;;;;;1999.90;999.90;;;16.40;99.90;;;;;;5087264;28;20034;-71
2023/08/18 04:14:09;;;;;;;1999.90;999.90;;;16.50;99.90;;;;;;5088156;28;20040;-71
2023/08/18 04:16:35;;;;;;;1999.90;999.90;;;16.50;99.90;;;;;;5084776;28;20051;-71
2023/08/18 04:19:00;;;;;;;1999.90;999.90;;;16.50;99.90;;;;;;5085149;28;20066;-70
2023/08/18 04:21:27;;;;;;;1999.90;999.90;;;16.50;99.90;;;;;;5086997;28;20511;-71
2023/08/18 04:23:52;;;;;;;1999.90;999.90;;;16.50;99.90;;;;;;5067157;28;20040;-70
2023/08/18 04:26:19;;;;;;;1999.90;999.90;;;16.50;99.90;;;;;;5086471;28;20054;-71
2023/08/18 04:28:47;;;;;;;1999.90;999.90;;;16.50;99.90;;;;;;5082790;28;20044;-71
2023/08/18 04:31:13;;;;;;;1999.90;999.90;;;16.50;99.90;;;;;;5087312;28;20512;-71
2023/08/18 04:33:39;;;;;;;1999.90;999.90;;;16.50;99.90;;;;;;5082266;28;20075;-71
2023/08/18 04:36:05;;;;;;;1999.90;999.90;;;16.60;99.90;;;;;;5085994;28;20044;-71
2023/08/18 04:38:31;;;;;;;1999.90;999.90;;;16.60;99.90;;;;;;5086052;28;20525;-70
2023/08/18 04:41:00;;;;;;;1999.90;999.90;;;16.60;99.90;;;;;;5087894;28;20055;-71
2023/08/18 04:43:27;;;;;;;1999.90;999.90;;;16.60;99.90;;;;;;5082495;28;20039;-71
2023/08/18 04:45:53;;;;;;;1999.90;999.90;;;16.60;99.90;;;;;;5083863;28;20048;-70
2023/08/18 04:48:23;;;;;;;1999.90;999.90;;;16.60;99.90;;;;;;5083390;28;20055;-71
2023/08/18 04:50:49;;;;;;;1999.90;999.90;;;16.60;99.90;;;;;;5067309;28;20039;-71
2023/08/18 04:53:15;;;;;;;1999.90;999.90;;;16.70;99.90;;;;;;5080340;28;20069;-71
2023/08/18 04:55:42;;;;;;;1999.90;999.90;;;16.60;99.90;;;;;;5067716;28;20071;-71
2023/08/18 04:58:12;;;;;;;1999.90;999.90;;;16.70;99.90;;;;;;5084235;28;20044;-71
2023/08/18 05:00:39;;;;;;;1999.90;999.90;;;16.70;99.90;;;;;;5084534;28;20055;-71
2023/08/18 05:03:05;;;;;;;1999.90;999.90;;;16.70;99.90;;;;;;5068862;28;20118;-71
2023/08/18 05:05:38;;;;;;;1999.90;999.90;;;16.70;99.90;;;;;;5084493;28;20082;-71
2023/08/18 05:08:05;;;;;;;1999.90;999.90;;;16.70;99.90;;;;;;5085089;28;20059;-70
2023/08/18 05:10:30;;;;;;;1999.90;999.90;;;16.70;99.90;;;;;;5068716;28;20036;-71
2023/08/18 05:12:56;;;;;;;1999.90;999.90;;;16.70;99.90;;;;;;5095688;28;20052;-71
2023/08/18 05:15:22;;;;;;;1999.90;999.90;;;16.70;99.90;;;;;;5085060;28;20083;-71
2023/08/18 05:17:51;;;;;;;1999.90;999.90;;;16.80;99.90;;;;;;5066840;28;20028;-71
2023/08/18 05:20:16;;;;;;;1999.90;999.90;;;16.70;99.90;;;;;;5094685;28;20408;-71
2023/08/18 05:22:42;;;;;;;1999.90;999.90;;;16.80;99.90;;;;;;5077719;28;20049;-71
2023/08/18 05:25:08;;;;;;;1999.90;999.90;;;16.80;99.90;;;;;;5093247;28;20403;-71
2023/08/18 05:27:34;;;;;;;1999.90;999.90;;;16.80;99.90;;;;;;5083677;28;20051;-71
2023/08/18 05:30:00;;;;;;;1999.90;999.90;;;16.80;99.90;;;;;;5069500;28;20036;-71
2023/08/18 05:32:26;;;;;;;1999.90;999.90;;;16.80;99.90;;;;;;5080515;28;20101;-71
2023/08/18 05:34:55;;;;;;;1999.90;999.90;;;16.90;99.90;;;;;;5066592;28;21127;-71
2023/08/18 05:37:22;;;;;;;1999.90;999.90;;;16.90;99.90;;;;;;5060993;28;20035;-71
2023/08/18 05:39:47;;;;;;;1999.90;999.90;;;16.90;99.90;;;;;;5081047;28;20491;-70
2023/08/18 05:42:13;;;;;;;1999.90;999.90;;;17.00;99.90;;;;;;5065179;28;20044;-71
2023/08/18 05:44:38;;;;;;;1999.90;999.90;;;17.00;99.90;;;;;;5085913;28;20105;-71
2023/08/18 05:47:04;;;;;;;1999.90;999.90;;;17.00;99.90;;;;;;5067488;28;20040;-71
2023/08/18 05:49:30;;;;;;;1999.90;999.90;;;17.10;99.90;;;;;;5067648;28;20036;-71
2023/08/18 05:51:56;;;;;;;1999.90;999.90;;;17.10;99.90;;;;;;5085503;28;20039;-71
2023/08/18 05:54:21;;;;;;;1999.90;999.90;;;17.10;99.90;;;;;;5084924;28;20087;-71
2023/08/18 05:56:47;;;;;;;1999.90;999.90;;;17.10;99.90;;;;;;5078605;28;20102;-72
2023/08/18 05:59:13;;;;;;;1999.90;999.90;;;17.10;99.90;;;;;;5083960;28;20055;-71
2023/08/18 06:01:38;;;;;;;1999.90;999.90;;;17.20;99.90;;;;;;5099207;28;20040;-71
2023/08/18 06:04:04;;;;;;;1999.90;999.90;;;17.20;99.90;;;;;;5085099;28;20131;-71
2023/08/18 06:06:30;;;;;;;1999.90;999.90;;;17.20;99.90;;;;;;5082812;28;20040;-71
2023/08/18 06:08:56;;;;;;;1999.90;999.90;;;17.30;99.90;;;;;;5101582;28;20047;-71
2023/08/18 06:11:22;;;;;;;1999.90;999.90;;;17.30;99.90;;;;;;5064859;28;20040;-71
2023/08/18 06:13:48;;;;;;;1999.90;999.90;;;17.30;99.90;;;;;;5085678;28;20396;-71
2023/08/18 06:16:13;;;;;;;1999.90;999.90;;;17.20;99.90;;;;;;5072640;28;20044;-71
2023/08/18 06:18:39;;;;;;;1999.90;999.90;;;17.30;99.90;;;;;;5070980;28;20036;-71
2023/08/18 06:21:05;;;;;;;1999.90;999.90;;;17.30;99.90;;;;;;5072309;28;20044;-71
2023/08/18 06:23:30;;;;;;;1999.90;999.90;;;17.30;99.90;;;;;;5090925;28;20036;-71
2023/08/18 06:25:57;;;;;;;1999.90;999.90;;;17.40;99.90;;;;;;5067335;28;20534;-71
2023/08/18 06:28:22;;;;;;;1999.90;999.90;;;17.40;99.90;;;;;;5087982;28;20126;-71
2023/08/18 06:30:48;;;;;;;1999.90;999.90;;;17.40;99.90;;;;;;5088457;28;20129;-71
2023/08/18 06:33:14;;;;;;;1999.90;999.90;;;17.50;99.90;;;;;;5089175;28;20067;-71
2023/08/18 06:35:39;;;;;;;1999.90;999.90;;;17.50;99.90;;;;;;5103252;28;20044;-71
2023/08/18 06:38:05;;;;;;;1999.90;999.90;;;17.60;99.90;;;;;;5090117;28;20471;-71
2023/08/18 06:40:30;;;;;;;1999.90;999.90;;;17.60;99.90;;;;;;5091090;28;20036;-71
2023/08/18 06:42:56;;;;;;;1999.90;999.90;;;17.60;99.90;;;;;;5088441;28;20036;-71
2023/08/18 06:45:21;;;;;;;1999.90;999.90;;;17.70;99.90;;;;;;5106304;28;20094;-71
2023/08/18 06:47:47;;;;;;;1999.90;999.90;;;17.70;99.90;;;;;;5088879;28;20050;-71
2023/08/18 06:50:13;;;;;;;1999.90;999.90;;;17.70;99.90;;;;;;5079805;28;20050;-71
2023/08/18 06:52:38;;;;;;;1999.90;999.90;;;17.70;99.90;;;;;;5090700;28;20480;-71
2023/08/18 06:55:04;;;;;;;1999.90;999.90;;;17.70;99.90;;;;;;5087625;28;20040;-71
2023/08/18 06:57:30;;;;;;;1999.90;999.90;;;17.70;99.90;;;;;;5072093;28;20027;-71
2023/08/18 06:59:56;;;;;;;1999.90;999.90;;;17.70;99.90;;;;;;5082718;28;20397;-71
2023/08/18 07:02:22;;;;;;;1999.90;999.90;;;17.80;99.90;;;;;;5090039;28;20093;-71
2023/08/18 07:04:47;;;;;;;1999.90;999.90;;;17.80;99.90;;;;;;5088036;28;20121;-71
2023/08/18 07:07:15;;;;;;;1999.90;999.90;;;17.90;99.90;;;;;;5087142;28;20131;-71
2023/08/18 07:09:40;;;;;;;1999.90;999.90;;;17.90;99.90;;;;;;5085002;28;20036;-71
2023/08/18 07:12:06;;;;;;;1999.90;999.90;;;18.00;99.90;;;;;;5088875;28;20051;-71
2023/08/18 07:14:32;;;;;;;1999.90;999.90;;;18.00;99.90;;;;;;5090408;28;20036;-71
2023/08/18 07:16:59;;;;;;;1999.90;999.90;;;18.10;99.90;;;;;;5088773;28;20452;-71
2023/08/18 07:19:24;;;;;;;1999.90;999.90;;;18.10;99.90;;;;;;5071538;28;20036;-71
2023/08/18 07:21:51;;;;;;;1999.90;999.90;;;18.20;99.90;;;;;;5088741;28;20385;-71
2023/08/18 07:24:16;;;;;;;1999.90;999.90;;;18.20;99.90;;;;;;5083634;28;20051;-71
2023/08/18 07:26:42;;;;;;;1999.90;999.90;;;18.30;99.90;;;;;;5089626;28;20047;-71
2023/08/18 07:29:07;;;;;;;1999.90;999.90;;;18.30;99.90;;;;;;5103950;28;20039;-71
2023/08/18 07:31:33;;;;;;;1999.90;999.90;;;18.30;99.90;;;;;;5088015;28;20036;-71
2023/08/18 07:33:59;;;;;;;1999.90;999.90;;;18.30;99.90;;;;;;5086753;28;20070;-71
2023/08/18 07:36:25;;;;;;;1999.90;999.90;;;18.40;99.90;;;;;;5084855;28;20044;-71
2023/08/18 07:38:50;;;;;;;1999.90;999.90;;;18.50;99.90;;;;;;5088026;28;20488;-71
2023/08/18 07:41:16;;;;;;;1999.90;999.90;;;18.50;99.90;;;;;;5083368;28;20036;-71
2023/08/18 07:43:41;;;;;;;1999.90;999.90;;;18.50;99.90;;;;;;5087340;28;20476;-71
2023/08/18 07:46:07;;;;;;;1999.90;999.90;;;18.50;99.90;;;;;;5071361;28;20051;-71
2023/08/18 07:48:33;;;;;;;1999.90;999.90;;;18.50;99.90;;;;;;5084913;28;20048;-71
2023/08/18 07:50:58;;;;;;;1999.90;999.90;;;18.60;99.90;;;;;;5062427;28;20180;-71
2023/08/18 07:53:26;;;;;;;1999.90;999.90;;;18.60;99.90;;;;;;5088201;28;20050;-71
2023/08/18 07:55:51;;;;;;;1999.90;999.90;;;18.60;99.90;;;;;;5065712;28;20040;-71
2023/08/18 07:58:17;;;;;;;1999.90;999.90;;;18.60;99.90;;;;;;5087601;28;20109;-71
2023/08/18 08:00:42;;;;;;;1999.90;999.90;;;18.60;99.90;;;;;;5102690;28;20071;-71
2023/08/18 08:03:08;;;;;;;1999.90;999.90;;;18.70;99.90;;;;;;5089010;28;20403;-71
2023/08/18 08:05:34;;;;;;;1999.90;999.90;;;18.70;99.90;;;;;;5087376;28;20101;-71
2023/08/18 08:07:59;;;;;;;1999.90;999.90;;;18.80;99.90;;;;;;5101688;28;20044;-71
2023/08/18 08:10:25;;;;;;;1999.90;999.90;;;18.80;99.90;;;;;;5087674;28;20040;-71
2023/08/18 08:12:50;;;;;;;1999.90;999.90;;;18.80;99.90;;;;;;5100367;28;20716;-71
2023/08/18 08:15:17;;;;;;;1999.90;999.90;;;18.80;99.90;;;;;;5087244;28;20040;-71
2023/08/18 08:17:42;;;;;;;1999.90;999.90;;;18.70;99.90;;;;;;5087367;28;20062;-71
2023/08/18 08:20:15;;;;;;;1999.90;999.90;;;18.70;99.90;;;;;;5084714;28;20043;-71
2023/08/18 08:22:42;;;;;;;1999.90;999.90;;;18.70;99.90;;;;;;5087735;28;20044;-70
2023/08/18 08:25:08;;;;;;;1999.90;999.90;;;18.70;99.90;;;;;;5078204;28;20040;-71
2023/08/18 08:27:34;;;;;;;1999.90;999.90;;;18.70;99.90;;;;;;5087397;28;20097;-71
2023/08/18 08:30:00;;;;;;;1999.90;999.90;;;18.70;99.90;;;;;;5085712;28;20040;-71
2023/08/18 08:32:26;;;;;;;1999.90;999.90;;;18.80;99.90;;;;;;5103256;28;20082;-71
2023/08/18 08:34:52;;;;;;;1999.90;999.90;;;18.90;99.90;;;;;;5070383;28;20071;-72
2023/08/18 08:37:18;;;;;;;1999.90;999.90;;;19.10;99.90;;;;;;5085170;28;20046;-71
2023/08/18 08:39:44;;;;;;;1999.90;999.90;;;19.30;99.90;;;;;;5086794;28;20093;-71
2023/08/18 08:42:10;;;;;;;1999.90;999.90;;;19.40;99.90;;;;;;5083563;28;20128;-71
2023/08/18 08:44:36;;;;;;;132.13;125.75;;;19.50;99.90;;;;;;5089086;28;20119;-72
2023/08/18 08:47:02;;;;;;;1999.90;999.90;;;19.60;99.90;;;;;;5087021;28;20061;-71
2023/08/18 08:49:32;;;;;;;579.20;325.13;;;19.60;99.90;;;;;;5087691;28;20040;-71
2023/08/18 08:52:07;;;;;;;576.60;322.73;;;19.60;99.90;;;;;;5085560;28;20485;-71
2023/08/18 08:54:38;;;;;;;1999.90;999.90;;;19.60;99.90;;;;;;5086910;28;20044;-71
2023/08/18 08:57:06;;;;;;;112.90;107.32;;;19.60;99.90;;;;;;5096462;28;20123;-71
2023/08/18 08:59:32;;;;;;;571.85;318.08;;;19.70;99.90;;;;;;5085545;28;20048;-71
2023/08/18 09:01:58;;;;;;;99.57;94.47;;;19.70;99.90;;;;;;5086310;28;20035;-72
2023/08/18 09:04:24;;;;;;;106.28;101.05;;;19.80;99.90;;;;;;5085246;28;20078;-71
2023/08/18 09:06:49;;;;;;;106.30;100.82;;;19.90;99.90;;;;;;5080470;28;20036;-71
2023/08/18 09:09:15;;;;;;;93.32;88.47;;;20.00;99.90;;;;;;5065628;28;20492;-71
2023/08/18 09:11:42;;;;;;;103.30;97.72;;;20.10;99.90;;;;;;5086530;28;20035;-71
2023/08/18 09:14:08;;;;;;;105.13;99.57;;;20.20;99.90;;;;;;5068889;28;20051;-71
2023/08/18 09:16:34;;;;;;;106.95;101.43;;;20.20;99.90;;;;;;5086768;28;20047;-71
2023/08/18 09:19:01;;;;;;;101.43;95.85;;;20.30;99.90;;;;;;5084901;28;20044;-71
2023/08/18 09:21:27;;;;;;;117.18;110.65;;;20.40;99.90;;;;;;5069923;28;20123;-72
2023/08/18 09:23:56;;;;;;;123.45;117.20;;;20.50;99.90;;;;;;5083489;28;20453;-71
2023/08/18 09:26:22;;;;;;;121.63;115.45;;;20.50;99.90;;;;;;5086408;28;20109;-71
2023/08/18 09:28:48;;;;;;;126.13;119.85;;;20.60;99.90;;;;;;5086314;28;20046;-71
2023/08/18 09:31:13;;;;;;;136.93;130.20;;;20.60;99.90;;;;;;5097340;28;20040;-71
2023/08/18 09:33:39;;;;;;;147.20;139.43;;;20.70;99.90;;;;;;5101307;28;20040;-71
2023/08/18 09:36:05;;;;;;;131.75;124.90;;;20.70;99.90;;;;;;5069650;28;20086;-71
2023/08/18 09:38:43;;;;;;;120.28;114.38;;;20.70;99.90;;;;;;5085299;28;20040;-72
2023/08/18 09:41:10;;;;;;;150.60;143.10;;;20.80;99.90;;;;;;5078371;28;20028;-71
2023/08/18 09:43:37;;;;;;;163.40;155.45;;;20.90;99.90;;;;;;5080515;28;20373;-71
2023/08/18 09:46:06;;;;;;;123.20;117.00;;;21.00;99.90;;;;;;5082038;28;20504;-71
2023/08/18 09:48:38;;;;;;;198.52;188.73;;;21.10;99.90;;;;;;5100715;28;20112;-71
2023/08/18 09:51:09;;;;;;;188.43;179.15;;;21.10;99.90;;;;;;5087839;28;20050;-71
2023/08/18 09:53:39;;;;;;;180.35;172.00;;;21.10;99.90;;;;;;5088498;28;20047;-71
2023/08/18 09:56:13;;;;;;;213.43;203.27;;;21.00;99.90;;;;;;5087299;28;20040;-71
2023/08/18 09:58:51;;;;;;;224.57;213.90;;;21.00;99.90;;;;;;5090155;28;20067;-71
2023/08/18 10:01:17;;;;;;;212.18;202.40;;;21.20;99.90;;;;;;5086061;28;20051;-71
2023/08/18 10:03:46;;;;;;;203.48;193.48;;;21.30;99.90;;;;;;5079890;28;20113;-71
2023/08/18 10:06:12;;;;;;;215.50;205.38;;;21.40;99.90;;;;;;5072603;28;20062;-71
2023/08/18 10:08:40;;;;;;;194.32;185.43;;;21.50;99.90;;;;;;5081363;28;20039;-71
2023/08/18 10:11:07;;;;;;;157.40;149.93;;;21.60;99.90;;;;;;5086955;28;20073;-72
2023/08/18 10:13:33;;;;;;;189.88;181.27;;;21.70;99.90;;;;;;5090037;28;20054;-71
2023/08/18 10:16:05;;;;;;;202.60;193.55;;;21.80;99.90;;;;;;5089187;28;20051;-71
2023/08/18 10:18:31;;;;;;;170.85;162.95;;;21.90;99.90;;;;;;5084169;28;20036;-71
2023/08/18 10:20:57;;;;;;;196.57;187.60;;;22.10;99.90;;;;;;5089769;28;20040;-72
2023/08/18 10:23:29;;;;;;;121.45;115.78;;;22.20;99.90;;;;;;5106315;28;20046;-72
2023/08/18 10:25:55;;;;;;;128.90;122.85;;;22.30;99.90;;;;;;5068146;28;20044;-72
2023/08/18 10:28:26;;;;;;;132.48;126.45;;;22.30;99.90;;;;;;5086120;28;20062;-72
2023/08/18 10:31:04;;;;;;;167.95;160.32;;;22.20;99.90;;;;;;5087961;28;20521;-71
2023/08/18 10:33:43;;;;;;;135.60;129.52;;;22.30;99.90;;;;;;5089529;28;20148;-72
2023/08/18 10:36:13;;;;;;;175.02;166.70;;;22.40;99.90;;;;;;5083805;28;20059;-72
2023/08/18 10:38:41;;;;;;;130.43;124.35;;;22.50;99.90;;;;;;5089290;28;20078;-72
2023/08/18 10:41:07;;;;;;;139.43;132.93;;;22.70;99.90;;;;;;5081489;28;20056;-72
2023/08/18 10:43:51;;;;;;;156.30;149.10;;;22.90;99.90;;;;;;5089013;28;20511;-72
2023/08/18 10:46:17;;;;;;;184.82;176.60;;;23.10;99.90;;;;;;5088942;28;20044;-71
2023/08/18 10:48:43;;;;;;;181.65;173.65;;;23.20;99.90;;;;;;5080909;28;20514;-72
2023/08/18 10:51:09;;;;;;;214.18;204.68;;;23.40;99.90;;;;;;5090599;28;20036;-71
2023/08/18 10:53:38;;;;;;;200.38;191.52;;;23.40;99.90;;;;;;5088613;28;20112;-71
2023/08/18 10:56:04;;;;;;;195.65;186.93;;;23.30;99.90;;;;;;5088690;28;20123;-72
2023/08/18 10:58:31;;;;;;;202.80;193.80;;;23.30;99.90;;;;;;5085518;28;20620;-72
2023/08/18 11:00:57;;;;;;;243.95;233.25;;;23.20;99.90;;;;;;5087319;28;20040;-72
2023/08/18 11:03:25;;;;;;;244.02;232.98;;;23.00;99.90;;;;;;5089160;28;20058;-72
2023/08/18 11:05:51;;;;;;;237.52;226.90;;;22.90;99.90;;;;;;5087415;28;20499;-72
2023/08/18 11:08:17;;;;;;;207.50;198.25;;;22.80;99.90;;;;;;5088504;28;20494;-71
2023/08/18 11:10:43;;;;;;;202.02;193.15;;;22.80;99.90;;;;;;5105857;28;20047;-72
2023/08/18 11:13:21;;;;;;;185.52;177.13;;;22.90;99.90;;;;;;5099047;28;20071;-71
2023/08/18 11:15:49;;;;;;;209.63;200.25;;;23.00;99.90;;;;;;5088660;28;20044;-72
2023/08/18 11:18:15;;;;;;;201.18;191.93;;;23.00;99.90;;;;;;5088753;28;20419;-72
2023/08/18 11:20:41;;;;;;;186.75;178.43;;;23.10;99.90;;;;;;5104499;28;20130;-72
2023/08/18 11:23:08;;;;;;;199.48;190.57;;;23.20;99.90;;;;;;5085623;28;20036;-72
2023/08/18 11:25:34;;;;;;;233.63;222.75;;;23.30;99.90;;;;;;5088354;28;20044;-72
2023/08/18 11:27:59;;;;;;;206.77;197.55;;;23.30;99.90;;;;;;5105567;28;20044;-71
2023/08/18 11:30:25;;;;;;;193.32;184.43;;;23.30;99.90;;;;;;5089572;28;21550;-71
2023/08/18 11:32:53;;;;;;;168.88;161.23;;;23.40;99.90;;;;;;5086805;28;20063;-72
2023/08/18 11:35:19;;;;;;;230.27;219.75;;;23.50;99.90;;;;;;5086873;28;20400;-72
2023/08/18 11:37:46;;;;;;;210.75;200.98;;;23.40;99.90;;;;;;5088248;28;20047;-71
2023/08/18 11:40:14;;;;;;;288.77;275.25;;;23.40;99.90;;;;;;5077189;28;20045;-72
2023/08/18 11:42:44;;;;;;;252.07;240.93;;;23.30;99.90;;;;;;5089964;28;20067;-71
2023/08/18 11:45:11;;;;;;;305.63;291.45;;;23.50;99.90;;;;;;5070789;28;20860;-72
2023/08/18 11:47:38;;;;;;;282.50;269.67;;;23.70;99.90;;;;;;5084183;28;20093;-71
2023/08/18 11:50:05;;;;;;;320.00;305.15;;;23.90;99.90;;;;;;5087800;28;20052;-71
2023/08/18 11:52:45;;;;;;;203.02;194.10;;;24.00;99.90;;;;;;5083137;28;20139;-72
2023/08/18 11:55:11;;;;;;;219.77;210.00;;;24.20;99.90;;;;;;5087846;28;20075;-72
2023/08/18 11:57:45;;;;;;;212.13;202.77;;;24.20;99.90;;;;;;5089152;28;20043;-72
2023/08/18 12:00:13;;;;;;;177.85;169.98;;;24.10;99.90;;;;;;5078699;28;20044;-72